createdAt,value
2019-05-06T00:01:54.462Z,11.30
2019-05-06T00:04:20.635Z,9.23
2019-05-06T00:06:48.155Z,14.17
2019-05-06T00:09:14.697Z,9.33
2019-05-06T00:11:41.103Z,8.93
2019-05-06T00:14:07.337Z,11.77
2019-05-06T00:16:34.631Z,13.40
2019-05-06T00:19:01.436Z,9.03
2019-05-06T00:21:27.610Z,17.10
2019-05-06T00:23:54.564Z,13.83
2019-05-06T00:26:24.351Z,15.57
2019-05-06T00:28:53.905Z,10.70
2019-05-06T00:31:23.831Z,8.80
2019-05-06T00:33:49.925Z,16.20
2019-05-06T00:36:16.277Z,15.03
2019-05-06T00:38:44.865Z,13.70
2019-05-06T00:41:14.407Z,15.60
2019-05-06T00:43:40.744Z,13.77
2019-05-06T00:46:07.051Z,13.63
2019-05-06T00:48:34.078Z,17.17
2019-05-06T00:51:00.603Z,14.93
2019-05-06T00:53:28.791Z,13.80
2019-05-06T00:55:54.980Z,14.27
2019-05-06T00:58:21.154Z,16.60
2019-05-06T01:00:47.460Z,14.00
2019-05-06T01:03:14.131Z,10.70
2019-05-06T01:05:40.509Z,11.07
2019-05-06T01:08:06.984Z,11.70
2019-05-06T01:10:34.348Z,13.03
2019-05-06T01:13:04.229Z,18.13
2019-05-06T01:15:31.094Z,16.80
2019-05-06T01:17:57.411Z,18.33
2019-05-06T01:20:24.732Z,17.80
2019-05-06T01:22:50.963Z,20.83
2019-05-06T01:25:17.138Z,14.37
2019-05-06T01:27:44.430Z,19.20
2019-05-06T01:30:13.734Z,19.87
2019-05-06T01:32:39.859Z,17.50
2019-05-06T01:35:06.247Z,18.37
2019-05-06T01:37:34.596Z,18.43
2019-05-06T01:40:04.052Z,22.77
2019-05-06T01:42:34.294Z,18.30
2019-05-06T01:45:00.359Z,18.30
2019-05-06T01:47:26.546Z,17.67
2019-05-06T01:49:53.769Z,16.90
2019-05-06T01:52:20.228Z,13.60
2019-05-06T01:54:46.402Z,13.33
2019-05-06T01:57:13.693Z,12.20
2019-05-06T01:59:40.091Z,16.90
2019-05-06T02:02:06.362Z,17.47
2019-05-06T02:04:33.716Z,18.27
2019-05-06T02:07:00.142Z,17.67
2019-05-06T02:09:26.322Z,20.33
2019-05-06T02:11:53.654Z,17.43
2019-05-06T02:14:20.219Z,19.90
2019-05-06T02:16:46.434Z,16.37
2019-05-06T02:19:14.660Z,19.70
2019-05-06T02:21:40.686Z,19.13
2019-05-06T02:24:08.768Z,18.73
2019-05-06T02:26:35.254Z,14.13
2019-05-06T02:29:04.278Z,18.00
2019-05-06T02:31:35.334Z,16.60
2019-05-06T02:34:05.080Z,17.13
2019-05-06T02:36:34.441Z,15.80
2019-05-06T02:39:03.367Z,15.10
2019-05-06T02:41:28.803Z,29.33
2019-05-06T02:43:55.025Z,19.40
2019-05-06T02:46:23.533Z,15.93
2019-05-06T02:48:54.080Z,19.00
2019-05-06T02:51:20.378Z,14.03
2019-05-06T02:53:46.547Z,19.70
2019-05-06T02:56:13.422Z,22.23
2019-05-06T02:58:39.861Z,15.97
2019-05-06T03:01:06.133Z,16.40
2019-05-06T03:03:33.734Z,13.97
2019-05-06T03:06:03.533Z,15.50
2019-05-06T03:08:28.371Z,16.80
2019-05-06T03:10:54.656Z,14.23
2019-05-06T03:13:23.626Z,16.03
2019-05-06T03:15:49.129Z,21.67
2019-05-06T03:18:15.333Z,15.47
2019-05-06T03:20:44.515Z,18.07
2019-05-06T03:23:14.225Z,13.20
2019-05-06T03:25:44.060Z,9.67
2019-05-06T03:28:13.085Z,13.17
2019-05-06T03:30:38.251Z,14.27
2019-05-06T03:35:49.905Z,12.73
2019-05-06T03:38:03.833Z,16.77
2019-05-06T03:40:29.512Z,23.80
2019-05-06T03:42:55.819Z,20.73
2019-05-06T03:45:23.891Z,19.13
2019-05-06T03:47:54.312Z,21.77
2019-05-06T03:50:20.279Z,24.93
2019-05-06T03:52:46.651Z,16.03
2019-05-06T03:55:13.797Z,14.60
2019-05-06T03:57:42.845Z,12.70
2019-05-06T04:00:12.970Z,19.53
2019-05-06T04:02:39.832Z,15.67
2019-05-06T04:05:06.400Z,16.73
2019-05-06T04:07:34.023Z,15.63
2019-05-06T04:10:03.212Z,17.80
2019-05-06T04:12:28.375Z,17.27
2019-05-06T04:14:54.564Z,13.67
2019-05-06T04:17:23.833Z,18.93
2019-05-06T04:19:53.437Z,16.73
2019-05-06T04:22:23.543Z,13.50
2019-05-06T04:24:53.905Z,13.03
2019-05-06T04:27:25.334Z,19.90
2019-05-06T04:29:54.160Z,22.20
2019-05-06T04:32:23.235Z,21.97
2019-05-06T04:34:48.050Z,20.53
2019-05-06T04:37:14.549Z,23.33
2019-05-06T04:39:43.262Z,22.50
2019-05-06T04:42:09.820Z,17.27
2019-05-06T04:44:36.084Z,17.43
2019-05-06T04:47:05.039Z,15.03
2019-05-06T04:49:33.095Z,16.23
2019-05-06T04:51:58.567Z,18.87
2019-05-06T04:54:26.650Z,21.23
2019-05-06T04:56:53.648Z,19.47
2019-05-06T04:59:22.516Z,22.10
2019-05-06T05:01:48.089Z,25.20
2019-05-06T05:04:26.937Z,23.33
2019-05-06T05:06:43.228Z,18.50
2019-05-06T05:09:13.244Z,21.93
2019-05-06T05:11:42.342Z,20.00
2019-05-06T05:14:09.614Z,24.20
2019-05-06T05:16:37.689Z,19.17
2019-05-06T05:19:05.786Z,14.20
2019-05-06T05:21:32.319Z,20.47
2019-05-06T05:24:02.047Z,22.33
2019-05-06T05:26:28.391Z,21.00
2019-05-06T05:28:54.699Z,15.50
2019-05-06T05:31:22.896Z,23.20
2019-05-06T05:33:48.881Z,21.47
2019-05-06T05:36:16.458Z,18.13
2019-05-06T05:38:42.912Z,21.83
2019-05-06T05:41:12.098Z,19.43
2019-05-06T05:43:42.407Z,15.73
2019-05-06T05:46:08.705Z,17.87
2019-05-06T05:48:34.919Z,21.07
2019-05-06T05:51:03.221Z,17.83
2019-05-06T05:53:29.474Z,17.07
2019-05-06T05:55:55.670Z,17.67
2019-05-06T05:58:24.982Z,24.03
2019-05-06T06:00:51.998Z,23.97
2019-05-06T06:03:17.919Z,21.97
2019-05-06T06:05:44.095Z,17.27
2019-05-06T06:08:10.478Z,20.17
2019-05-06T06:10:38.785Z,21.10
2019-05-06T06:13:05.236Z,18.47
2019-05-06T06:15:33.392Z,21.33
2019-05-06T06:18:03.013Z,16.47
2019-05-06T06:20:32.759Z,25.07
2019-05-06T06:23:02.843Z,14.07
2019-05-06T06:25:29.397Z,21.53
2019-05-06T06:27:55.862Z,14.17
2019-05-06T06:30:23.935Z,21.00
2019-05-06T06:32:50.240Z,17.23
2019-05-06T06:35:19.231Z,17.63
2019-05-06T06:37:48.063Z,22.17
2019-05-06T06:40:16.170Z,19.13
2019-05-06T06:42:42.792Z,17.83
2019-05-06T06:45:09.386Z,27.77
2019-05-06T06:47:35.774Z,19.33
2019-05-06T06:50:02.945Z,16.90
2019-05-06T06:52:29.228Z,23.57
2019-05-06T06:54:55.423Z,22.63
2019-05-06T06:57:23.510Z,19.40
2019-05-06T06:59:52.403Z,15.67
2019-05-06T07:02:22.519Z,33.23
2019-05-06T07:04:52.575Z,14.70
2019-05-06T07:07:22.707Z,18.63
2019-05-06T07:09:48.702Z,18.23
2019-05-06T07:12:14.900Z,18.27
2019-05-06T07:14:43.247Z,20.70
2019-05-06T07:17:09.487Z,21.60
2019-05-06T07:19:37.766Z,20.50
2019-05-06T07:22:06.796Z,15.80
2019-05-06T07:24:32.550Z,17.33
2019-05-06T07:27:02.882Z,16.40
2019-05-06T07:29:28.683Z,19.63
2019-05-06T07:31:55.402Z,16.73
2019-05-06T07:34:22.894Z,17.17
2019-05-06T07:36:51.843Z,16.97
2019-05-06T07:39:18.201Z,17.80
2019-05-06T07:41:46.343Z,17.77
2019-05-06T07:44:14.566Z,12.80
2019-05-06T07:46:42.886Z,19.47
2019-05-06T07:49:09.158Z,19.40
2019-05-06T07:51:35.340Z,19.00
2019-05-06T07:54:02.778Z,16.57
2019-05-06T07:56:29.302Z,20.60
2019-05-06T07:58:57.386Z,20.63
2019-05-06T08:01:26.166Z,16.73
2019-05-06T08:03:53.230Z,18.03
2019-05-06T08:06:19.822Z,16.93
2019-05-06T08:08:46.240Z,16.63
2019-05-06T08:11:12.615Z,24.80
2019-05-06T08:13:39.286Z,22.90
2019-05-06T08:16:05.897Z,18.00
2019-05-06T08:18:32.957Z,14.23
2019-05-06T08:21:02.500Z,15.80
2019-05-06T08:23:32.537Z,14.80
2019-05-06T08:26:11.544Z,18.40
2019-05-06T08:28:38.586Z,17.63
2019-05-06T08:30:55.405Z,20.23
2019-05-06T08:33:22.014Z,22.30
2019-05-06T08:35:48.619Z,22.10
2019-05-06T08:38:14.892Z,22.37
2019-05-06T08:40:43.107Z,21.17
2019-05-06T08:43:09.618Z,25.13
2019-05-06T08:45:36.054Z,34.20
2019-05-06T08:48:03.074Z,21.73
2019-05-06T08:50:32.527Z,23.57
2019-05-06T08:53:04.846Z,28.23
2019-05-06T08:55:32.593Z,31.13
2019-05-06T08:57:58.902Z,29.13
2019-05-06T09:00:25.494Z,26.33
2019-05-06T09:02:53.047Z,21.77
2019-05-06T09:05:19.350Z,19.87
2019-05-06T09:07:47.042Z,18.43
2019-05-06T09:10:13.522Z,18.13
2019-05-06T09:12:42.398Z,17.77
2019-05-06T09:15:09.314Z,17.47
2019-05-06T09:17:35.938Z,16.87
2019-05-06T09:20:02.816Z,18.97
2019-05-06T09:22:29.116Z,16.63
2019-05-06T09:24:55.286Z,17.60
2019-05-06T09:27:23.363Z,13.47
2019-05-06T09:29:52.162Z,15.50
2019-05-06T09:32:22.510Z,17.77
2019-05-06T09:34:52.822Z,15.63
2019-05-06T09:37:19.791Z,15.47
2019-05-06T09:39:46.391Z,12.90
2019-05-06T09:42:13.097Z,18.80
2019-05-06T09:44:42.525Z,22.50
2019-05-06T09:47:12.631Z,18.07
2019-05-06T09:49:42.372Z,15.10
2019-05-06T09:52:08.188Z,14.80
2019-05-06T09:54:36.475Z,15.60
2019-05-06T09:57:04.549Z,14.53
2019-05-06T09:59:32.176Z,14.57
2019-05-06T10:01:59.648Z,13.17
2019-05-06T10:04:25.800Z,15.13
2019-05-06T10:06:57.191Z,11.47
2019-05-06T10:09:19.993Z,8.20
2019-05-06T10:11:46.233Z,14.70
2019-05-06T10:14:12.959Z,9.70
2019-05-06T10:16:39.265Z,6.23
2019-05-06T10:19:05.926Z,7.37
2019-05-06T10:21:32.348Z,11.00
2019-05-06T10:23:58.806Z,12.43
2019-05-06T10:26:25.074Z,12.37
2019-05-06T10:28:52.281Z,8.70
2019-05-06T10:31:19.083Z,11.20
2019-05-06T10:33:47.158Z,18.17
2019-05-06T10:36:13.939Z,14.80
2019-05-06T10:38:42.489Z,13.50
2019-05-06T10:41:12.994Z,20.77
2019-05-06T10:43:44.209Z,17.57
2019-05-06T10:46:10.378Z,15.93
2019-05-06T10:48:36.553Z,15.77
2019-05-06T10:51:04.757Z,16.90
2019-05-06T10:53:32.986Z,24.00
2019-05-06T10:56:02.321Z,20.47
2019-05-06T10:58:28.762Z,24.13
2019-05-06T11:00:56.902Z,30.37
2019-05-06T11:03:23.848Z,18.50
2019-05-06T11:05:50.404Z,17.67
2019-05-06T11:08:16.580Z,23.63
2019-05-06T11:10:45.413Z,33.43
2019-05-06T11:13:12.856Z,24.80
2019-05-06T11:15:38.898Z,17.77
2019-05-06T11:18:05.087Z,18.87
2019-05-06T11:20:33.439Z,14.73
2019-05-06T11:22:59.362Z,21.93
2019-05-06T11:25:25.541Z,18.57
2019-05-06T11:27:52.663Z,24.97
2019-05-06T11:30:21.832Z,19.93
2019-05-06T11:32:54.471Z,21.47
2019-05-06T11:35:22.881Z,18.40
2019-05-06T11:37:54.238Z,22.73
2019-05-06T11:40:19.187Z,27.07
2019-05-06T11:42:45.394Z,20.23
2019-05-06T11:45:12.671Z,19.33
2019-05-06T11:47:38.838Z,22.97
2019-05-06T11:50:06.679Z,21.83
2019-05-06T11:52:34.635Z,19.93
2019-05-06T11:55:02.176Z,19.30
2019-05-06T11:57:28.743Z,18.97
2019-05-06T11:59:54.910Z,21.07
2019-05-06T12:02:23.018Z,20.67
2019-05-06T12:04:50.068Z,25.33
2019-05-06T12:07:16.356Z,15.80
2019-05-06T12:09:42.834Z,22.87
2019-05-06T12:12:09.154Z,22.00
2019-05-06T12:14:35.418Z,16.60
2019-05-06T12:17:02.198Z,21.87
2019-05-06T12:19:28.601Z,20.77
2019-05-06T12:21:54.812Z,17.93
2019-05-06T12:24:22.831Z,19.07
2019-05-06T12:26:49.010Z,24.33
2019-05-06T12:29:15.188Z,16.87
2019-05-06T12:31:42.238Z,18.07
2019-05-06T12:34:11.465Z,22.20
2019-05-06T12:36:36.641Z,17.43
2019-05-06T12:39:07.411Z,18.73
2019-05-06T12:41:35.634Z,16.47
2019-05-06T12:44:03.267Z,18.63
2019-05-06T12:46:33.345Z,21.37
2019-05-06T12:48:59.597Z,26.60
2019-05-06T12:51:25.758Z,19.17
2019-05-06T12:53:52.902Z,23.10
2019-05-06T12:56:19.344Z,17.73
2019-05-06T12:58:45.514Z,15.30
2019-05-06T13:01:13.679Z,16.40
2019-05-06T13:03:39.959Z,23.73
2019-05-06T13:06:08.343Z,16.37
2019-05-06T13:08:52.854Z,15.90
2019-05-06T13:11:02.705Z,16.73
2019-05-06T13:13:29.451Z,22.23
2019-05-06T13:15:55.827Z,21.00
2019-05-06T13:18:23.182Z,16.23
2019-05-06T13:20:52.034Z,16.77
2019-05-06T13:23:24.587Z,13.67
2019-05-06T13:25:47.650Z,15.83
2019-05-06T13:28:15.782Z,15.57
2019-05-06T13:30:43.408Z,15.47
2019-05-06T13:33:09.879Z,14.27
2019-05-06T13:35:36.546Z,17.33
2019-05-06T13:38:02.823Z,15.50
2019-05-06T13:40:29.206Z,11.03
2019-05-06T13:42:57.286Z,9.37
2019-05-06T13:45:23.554Z,11.07
2019-05-06T13:47:52.416Z,11.63
2019-05-06T13:50:22.793Z,11.27
2019-05-06T13:53:07.241Z,9.47
2019-05-06T13:55:17.990Z,8.97
2019-05-06T13:57:44.571Z,13.50
2019-05-06T14:00:13.389Z,6.13
2019-05-06T14:02:43.437Z,6.90
2019-05-06T14:05:09.409Z,7.00
2019-05-06T14:07:35.674Z,6.57
2019-05-06T14:10:03.395Z,6.00
2019-05-06T14:12:29.570Z,6.97
2019-05-06T14:14:55.851Z,6.27
2019-05-06T14:17:22.410Z,11.30
2019-05-06T14:19:48.938Z,8.97
2019-05-06T14:22:15.118Z,8.87
2019-05-06T14:24:43.334Z,5.77
2019-05-06T14:27:11.287Z,6.20
2019-05-06T14:29:41.990Z,6.63
2019-05-06T14:32:07.710Z,8.67
2019-05-06T14:34:33.965Z,7.37
2019-05-06T14:37:00.159Z,6.83
2019-05-06T14:39:44.757Z,5.50
2019-05-06T14:41:57.058Z,10.73
2019-05-06T14:44:23.499Z,12.37
2019-05-06T14:46:51.782Z,5.27
2019-05-06T14:49:19.345Z,4.80
2019-05-06T14:51:45.515Z,7.13
2019-05-06T14:54:14.535Z,5.70
2019-05-06T14:56:42.747Z,7.70
2019-05-06T14:59:09.390Z,3.20
2019-05-06T15:01:37.135Z,4.37
2019-05-06T15:04:04.120Z,6.40
2019-05-06T15:06:30.290Z,5.53
2019-05-06T15:08:56.627Z,5.50
2019-05-06T15:11:23.002Z,5.43
2019-05-06T15:13:49.179Z,5.03
2019-05-06T15:16:15.619Z,4.60
2019-05-06T15:18:42.442Z,3.43
2019-05-06T15:21:32.338Z,4.47
2019-05-06T15:23:37.102Z,3.33
2019-05-06T15:26:03.274Z,4.63
2019-05-06T15:28:29.549Z,3.93
2019-05-06T15:30:57.734Z,3.43
2019-05-06T15:33:25.813Z,6.73
2019-05-06T15:35:53.886Z,8.00
2019-05-06T15:38:22.165Z,3.30
2019-05-06T15:40:48.595Z,6.93
2019-05-06T15:43:14.767Z,3.93
2019-05-06T15:45:42.924Z,5.97
2019-05-06T15:48:12.851Z,5.07
2019-05-06T15:50:43.237Z,3.97
2019-05-06T15:53:08.334Z,2.40
2019-05-06T15:55:34.510Z,4.47
2019-05-06T15:58:03.261Z,6.63
2019-05-06T16:00:28.884Z,2.63
2019-05-06T16:02:55.174Z,2.57
2019-05-06T16:05:26.238Z,4.27
2019-05-06T16:07:49.698Z,3.47
2019-05-06T16:10:16.378Z,6.37
2019-05-06T16:12:45.362Z,2.13
2019-05-06T16:15:12.960Z,4.60
2019-05-06T16:17:39.488Z,5.93
2019-05-06T16:20:06.062Z,7.43
2019-05-06T16:22:33.779Z,3.83
2019-05-06T16:25:02.694Z,3.20
2019-05-06T16:27:29.030Z,3.03
2019-05-06T16:29:55.438Z,5.93
2019-05-06T16:32:22.050Z,6.40
2019-05-06T16:34:48.387Z,2.60
2019-05-06T16:37:14.582Z,3.67
2019-05-06T16:39:40.762Z,5.77
2019-05-06T16:42:07.445Z,3.00
2019-05-06T16:44:33.813Z,6.10
2019-05-06T16:46:59.995Z,7.23
2019-05-06T16:49:26.174Z,4.43
2019-05-06T16:51:53.019Z,7.13
2019-05-06T16:54:19.391Z,5.17
2019-05-06T16:56:47.531Z,6.33
2019-05-06T16:59:13.727Z,5.73
2019-05-06T17:01:43.773Z,5.73
2019-05-06T17:04:14.350Z,4.43
2019-05-06T17:06:42.930Z,4.27
2019-05-06T17:09:19.947Z,5.80
2019-05-06T17:11:37.486Z,4.07
2019-05-06T17:14:04.283Z,6.70
2019-05-06T17:16:30.460Z,2.90
2019-05-06T17:18:57.740Z,4.50
2019-05-06T17:21:23.941Z,7.60
2019-05-06T17:23:52.053Z,2.80
2019-05-06T17:26:18.149Z,5.00
2019-05-06T17:28:46.250Z,5.63
2019-05-06T17:31:14.346Z,8.00
2019-05-06T17:33:42.948Z,5.53
2019-05-06T17:36:12.685Z,4.13
2019-05-06T17:38:41.930Z,7.13
2019-05-06T17:41:08.387Z,4.33
2019-05-06T17:43:40.541Z,5.47
2019-05-06T17:46:06.530Z,6.53
2019-05-06T17:48:31.180Z,7.43
2019-05-06T17:50:59.654Z,3.33
2019-05-06T17:53:26.206Z,5.40
2019-05-06T17:55:52.701Z,4.30
2019-05-06T17:58:18.984Z,7.67
2019-05-06T18:00:45.762Z,8.77
2019-05-06T18:03:11.930Z,9.00
2019-05-06T18:05:38.125Z,5.70
2019-05-06T18:08:04.302Z,4.97
2019-05-06T18:10:33.311Z,4.17
2019-05-06T18:12:58.582Z,7.63
2019-05-06T18:15:24.750Z,5.33
2019-05-06T18:17:52.469Z,3.97
2019-05-06T18:20:19.021Z,4.43
2019-05-06T18:22:45.320Z,6.50
2019-05-06T18:25:12.659Z,5.00
2019-05-06T18:27:38.967Z,6.47
2019-05-06T18:30:19.420Z,7.40
2019-05-06T18:32:33.406Z,10.40
2019-05-06T18:34:59.554Z,6.47
2019-05-06T18:37:25.830Z,5.47
2019-05-06T18:39:53.095Z,7.40
2019-05-06T18:42:21.475Z,5.30
2019-05-06T18:44:47.390Z,4.00
2019-05-06T18:47:13.662Z,5.70
2019-05-06T18:49:40.082Z,3.30
2019-05-06T18:52:08.350Z,5.67
2019-05-06T18:54:35.710Z,9.87
2019-05-06T18:57:04.782Z,5.93
2019-05-06T18:59:32.414Z,13.17
2019-05-06T19:01:58.115Z,7.87
2019-05-06T19:04:26.219Z,5.47
2019-05-06T19:07:08.770Z,5.63
2019-05-06T19:09:22.892Z,8.70
2019-05-06T19:11:49.689Z,6.60
2019-05-06T19:14:15.862Z,4.87
2019-05-06T19:16:49.733Z,5.87
2019-05-06T19:19:12.306Z,5.60
2019-05-06T19:21:38.337Z,8.23
2019-05-06T19:24:04.506Z,3.77
2019-05-06T19:26:32.662Z,4.97
2019-05-06T19:28:59.981Z,3.87
2019-05-06T19:31:26.532Z,6.87
2019-05-06T19:33:52.800Z,5.60
2019-05-06T19:36:19.293Z,7.17
2019-05-06T19:38:45.442Z,8.37
2019-05-06T19:41:12.850Z,6.70
2019-05-06T19:43:39.235Z,5.60
2019-05-06T19:46:05.408Z,6.20
2019-05-06T19:48:32.856Z,6.23
2019-05-06T19:50:59.179Z,9.90
2019-05-06T19:53:25.367Z,9.07
2019-05-06T19:55:53.038Z,8.03
2019-05-06T19:58:19.318Z,6.23
2019-05-06T20:00:46.096Z,5.50
2019-05-06T20:03:12.414Z,4.93
2019-05-06T20:05:40.470Z,5.27
2019-05-06T20:08:08.554Z,5.07
2019-05-06T20:10:36.834Z,4.50
2019-05-06T20:13:05.426Z,6.87
2019-05-06T20:15:33.899Z,6.60
2019-05-06T20:18:02.890Z,5.03
2019-05-06T20:20:32.684Z,4.37
2019-05-06T20:22:57.818Z,6.07
2019-05-06T20:25:24.121Z,7.63
2019-05-06T20:27:52.510Z,3.10
2019-05-06T20:30:18.494Z,4.73
2019-05-06T20:32:44.702Z,9.70
2019-05-06T20:35:12.884Z,8.10
2019-05-06T20:37:38.947Z,3.90
2019-05-06T20:40:05.450Z,6.17
2019-05-06T20:42:32.758Z,8.10
2019-05-06T20:44:59.003Z,4.03
2019-05-06T20:47:25.202Z,6.20
2019-05-06T20:49:52.612Z,8.10
2019-05-06T20:52:18.954Z,6.67
2019-05-06T20:54:45.152Z,5.03
2019-05-06T20:57:12.407Z,4.57
2019-05-06T20:59:38.746Z,6.53
2019-05-06T21:02:05.230Z,7.27
2019-05-06T21:04:32.450Z,6.43
2019-05-06T21:06:58.686Z,9.10
2019-05-06T21:09:24.981Z,10.17
2019-05-06T21:11:52.729Z,7.83
2019-05-06T21:14:19.133Z,6.17
2019-05-06T21:16:47.938Z,15.60
2019-05-06T21:19:13.428Z,8.33
2019-05-06T21:21:39.808Z,6.67
2019-05-06T21:24:06.005Z,7.30
2019-05-06T21:26:32.976Z,12.10
2019-05-06T21:28:59.466Z,6.60
2019-05-06T21:31:25.803Z,10.30
2019-05-06T21:33:52.255Z,9.53
2019-05-06T21:36:18.538Z,8.10
2019-05-06T21:38:44.894Z,9.13
2019-05-06T21:41:12.397Z,9.57
2019-05-06T21:43:47.086Z,13.27
2019-05-06T21:46:06.643Z,9.70
2019-05-06T21:48:33.706Z,9.20
2019-05-06T21:50:59.999Z,9.10
2019-05-06T21:53:26.196Z,10.10
2019-05-06T21:55:52.602Z,11.37
2019-05-06T21:58:19.453Z,8.23
2019-05-06T22:00:48.455Z,9.40
2019-05-06T22:03:14.622Z,11.10
2019-05-06T22:05:40.790Z,12.57
2019-05-06T22:08:07.001Z,9.90
2019-05-06T22:10:33.269Z,9.90
2019-05-06T22:12:59.554Z,15.00
2019-05-06T22:15:25.886Z,10.50
2019-05-06T22:17:54.315Z,12.87
2019-05-06T22:20:23.618Z,14.60
2019-05-06T22:22:48.101Z,11.57
2019-05-06T22:25:14.286Z,13.73
2019-05-06T22:27:42.392Z,12.40
2019-05-06T22:30:08.784Z,14.00
2019-05-06T22:32:36.862Z,13.87
2019-05-06T22:35:04.769Z,14.10
2019-05-06T22:37:33.098Z,15.80
2019-05-06T22:39:59.250Z,11.07
2019-05-06T22:42:25.525Z,13.73
2019-05-06T22:44:51.731Z,12.30
2019-05-06T22:47:18.010Z,14.00
2019-05-06T22:49:44.185Z,10.67
2019-05-06T22:52:12.443Z,17.30
2019-05-06T22:54:38.558Z,13.10
2019-05-06T22:57:04.737Z,15.57
2019-05-06T22:59:33.041Z,16.70
2019-05-06T23:02:02.329Z,13.90
2019-05-06T23:04:32.455Z,14.73
2019-05-06T23:06:58.797Z,16.53
2019-05-06T23:09:25.159Z,13.67
2019-05-06T23:11:51.462Z,12.90
2019-05-06T23:14:30.495Z,13.93
2019-05-06T23:16:45.777Z,15.47
2019-05-06T23:19:11.955Z,17.17
2019-05-06T23:21:38.247Z,16.47
2019-05-06T23:24:04.443Z,16.83
2019-05-06T23:26:30.768Z,15.37
2019-05-06T23:28:57.027Z,14.27
2019-05-06T23:31:24.578Z,19.27
2019-05-06T23:33:53.246Z,12.07
2019-05-06T23:36:19.102Z,18.57
2019-05-06T23:38:49.090Z,14.90
2019-05-06T23:41:19.083Z,17.53
2019-05-06T23:43:49.106Z,18.87
2019-05-06T23:46:19.319Z,14.33
2019-05-06T23:48:49.289Z,20.30
2019-05-06T23:51:19.300Z,14.43
2019-05-06T23:53:49.290Z,12.93
2019-05-06T23:56:19.266Z,18.43
2019-05-06T23:58:45.567Z,14.17
